GLD1774 MDSD-MTPP
Flight info
| Callsign | GLD1774 |
|---|---|
| Flight time | 1h 50m |
| Altitude | 8000 |
| Route | CDO BHO PAP |
| Aircraft | C172/L-SDFGIRY/S |
Departure
| Time | 2026-04-23 15:15 |
|---|---|
| Airport | Las Américas International Airport (MDSD) |
Arrival
| Time | 2026-04-23 17:05 |
|---|---|
| Airport | Toussaint Louverture International Airport (MTPP) |
| Time | Latitude | Longitude | Altitude | Speed | Heading |
|---|---|---|---|---|---|
| 2026-04-23 15:06 | 18.42742 | -69.67354 | 61 ft | 0 kts | 157° |
| 2026-04-23 15:09 | 18.42756 | -69.67337 | 61 ft | 11 kts | 348° |
| 2026-04-23 15:09 | 18.42853 | -69.67360 | 60 ft | 16 kts | 342° |
| 2026-04-23 15:09 | 18.42969 | -69.67401 | 59 ft | 19 kts | 340° |
| 2026-04-23 15:09 | 18.43100 | -69.67452 | 58 ft | 21 kts | 339° |
| 2026-04-23 15:10 | 18.43235 | -69.67506 | 57 ft | 20 kts | 339° |
| 2026-04-23 15:10 | 18.43357 | -69.67544 | 57 ft | 17 kts | 352° |
| 2026-04-23 15:10 | 18.43468 | -69.67556 | 56 ft | 15 kts | 353° |
| 2026-04-23 15:10 | 18.43565 | -69.67575 | 55 ft | 16 kts | 343° |
| 2026-04-23 15:11 | 18.43681 | -69.67617 | 55 ft | 18 kts | 339° |
| 2026-04-23 15:11 | 18.43803 | -69.67669 | 54 ft | 19 kts | 338° |
| 2026-04-23 15:11 | 18.43930 | -69.67724 | 53 ft | 20 kts | 337° |
| 2026-04-23 15:11 | 18.44061 | -69.67785 | 52 ft | 21 kts | 336° |
| 2026-04-23 15:12 | 18.44147 | -69.67720 | 52 ft | 18 kts | 68° |
| 2026-04-23 15:12 | 18.44198 | -69.67597 | 52 ft | 18 kts | 83° |
| 2026-04-23 15:12 | 18.44133 | -69.67505 | 52 ft | 14 kts | 73° |
| 2026-04-23 15:12 | 18.44221 | -69.67479 | 52 ft | 14 kts | 25° |
| 2026-04-23 15:13 | 18.44293 | -69.67422 | 52 ft | 14 kts | 100° |
| 2026-04-23 15:13 | 18.44145 | -69.67331 | 53 ft | 48 kts | 160° |
| 2026-04-23 15:13 | 18.43692 | -69.67162 | 55 ft | 86 kts | 161° |
| 2026-04-23 15:13 | 18.43052 | -69.66914 | 73 ft | 107 kts | 159° |
| 2026-04-23 15:14 | 18.42342 | -69.66642 | 207 ft | 107 kts | 161° |
| 2026-04-23 15:14 | 18.41637 | -69.66387 | 371 ft | 108 kts | 161° |
| 2026-04-23 15:14 | 18.40911 | -69.66134 | 458 ft | 117 kts | 161° |
| 2026-04-23 15:14 | 18.40150 | -69.65870 | 562 ft | 115 kts | 166° |
| 2026-04-23 15:15 | 18.39431 | -69.66137 | 689 ft | 115 kts | 227° |
| 2026-04-23 15:15 | 18.38944 | -69.66769 | 832 ft | 111 kts | 229° |
| 2026-04-23 15:15 | 18.38596 | -69.67467 | 962 ft | 111 kts | 273° |
| 2026-04-23 15:15 | 18.38827 | -69.68232 | 1117 ft | 110 kts | 290° |
| 2026-04-23 15:16 | 18.39078 | -69.69000 | 1262 ft | 111 kts | 291° |
| 2026-04-23 15:16 | 18.39338 | -69.69750 | 1400 ft | 107 kts | 292° |
| 2026-04-23 15:16 | 18.39585 | -69.70500 | 1554 ft | 109 kts | 292° |
| 2026-04-23 15:16 | 18.39843 | -69.71256 | 1708 ft | 111 kts | 291° |
| 2026-04-23 15:17 | 18.40112 | -69.72027 | 1861 ft | 113 kts | 291° |
| 2026-04-23 15:17 | 18.40387 | -69.72798 | 2011 ft | 113 kts | 292° |
| 2026-04-23 15:17 | 18.40648 | -69.73577 | 2154 ft | 113 kts | 291° |
| 2026-04-23 15:17 | 18.40915 | -69.74357 | 2298 ft | 113 kts | 291° |
| 2026-04-23 15:18 | 18.41190 | -69.75126 | 2449 ft | 113 kts | 291° |
| 2026-04-23 15:18 | 18.41461 | -69.75905 | 2591 ft | 113 kts | 291° |
| 2026-04-23 15:18 | 18.41730 | -69.76672 | 2736 ft | 111 kts | 292° |
| 2026-04-23 15:18 | 18.41993 | -69.77441 | 2880 ft | 112 kts | 292° |
| 2026-04-23 15:19 | 18.42336 | -69.78164 | 3029 ft | 109 kts | 311° |
| 2026-04-23 15:19 | 18.42731 | -69.78833 | 3176 ft | 111 kts | 291° |
| 2026-04-23 15:19 | 18.42750 | -69.79643 | 3316 ft | 112 kts | 266° |
| 2026-04-23 15:19 | 18.42682 | -69.80457 | 3462 ft | 111 kts | 264° |
| 2026-04-23 15:20 | 18.42589 | -69.81259 | 3606 ft | 110 kts | 264° |
| 2026-04-23 15:20 | 18.42492 | -69.82052 | 3746 ft | 109 kts | 263° |
| 2026-04-23 15:20 | 18.42394 | -69.82833 | 3891 ft | 107 kts | 263° |
| 2026-04-23 15:20 | 18.42295 | -69.83609 | 4036 ft | 106 kts | 263° |
| 2026-04-23 15:21 | 18.42196 | -69.84379 | 4179 ft | 106 kts | 263° |
| 2026-04-23 15:21 | 18.42096 | -69.85146 | 4326 ft | 106 kts | 263° |
| 2026-04-23 15:21 | 18.41997 | -69.85911 | 4474 ft | 105 kts | 263° |
| 2026-04-23 15:21 | 18.41897 | -69.86675 | 4626 ft | 105 kts | 263° |
| 2026-04-23 15:22 | 18.41798 | -69.87435 | 4777 ft | 105 kts | 262° |
| 2026-04-23 15:22 | 18.41700 | -69.88193 | 4923 ft | 104 kts | 262° |
| 2026-04-23 15:22 | 18.41602 | -69.88949 | 5073 ft | 104 kts | 262° |
| 2026-04-23 15:22 | 18.41504 | -69.89706 | 5211 ft | 104 kts | 262° |
| 2026-04-23 15:23 | 18.41406 | -69.90461 | 5353 ft | 104 kts | 262° |
| 2026-04-23 15:23 | 18.41308 | -69.91210 | 5497 ft | 103 kts | 263° |
| 2026-04-23 15:23 | 18.41211 | -69.91951 | 5642 ft | 102 kts | 263° |
| 2026-04-23 15:23 | 18.41116 | -69.92679 | 5785 ft | 101 kts | 263° |
| 2026-04-23 15:24 | 18.41021 | -69.93409 | 5929 ft | 100 kts | 262° |
| 2026-04-23 15:24 | 18.40928 | -69.94120 | 6073 ft | 97 kts | 262° |
| 2026-04-23 15:24 | 18.40839 | -69.94812 | 6215 ft | 94 kts | 262° |
| 2026-04-23 15:24 | 18.40751 | -69.95488 | 6358 ft | 92 kts | 262° |
| 2026-04-23 15:25 | 18.40665 | -69.96146 | 6502 ft | 89 kts | 263° |
| 2026-04-23 15:25 | 18.40581 | -69.96782 | 6629 ft | 86 kts | 263° |
| 2026-04-23 15:25 | 18.40499 | -69.97411 | 6724 ft | 88 kts | 263° |
| 2026-04-23 15:25 | 18.40416 | -69.98049 | 6822 ft | 89 kts | 263° |
| 2026-04-23 15:26 | 18.40331 | -69.98700 | 6912 ft | 91 kts | 262° |
| 2026-04-23 15:26 | 18.40245 | -69.99369 | 6993 ft | 93 kts | 262° |
| 2026-04-23 15:26 | 18.40155 | -70.00054 | 7073 ft | 95 kts | 262° |
| 2026-04-23 15:26 | 18.40063 | -70.00753 | 7147 ft | 97 kts | 262° |
| 2026-04-23 15:27 | 18.39970 | -70.01462 | 7221 ft | 99 kts | 262° |
| 2026-04-23 15:27 | 18.39875 | -70.02185 | 7295 ft | 100 kts | 262° |
| 2026-04-23 15:27 | 18.39779 | -70.02914 | 7368 ft | 101 kts | 263° |
| 2026-04-23 15:27 | 18.39683 | -70.03649 | 7441 ft | 101 kts | 263° |
| 2026-04-23 15:28 | 18.39586 | -70.04389 | 7516 ft | 102 kts | 262° |
| 2026-04-23 15:28 | 18.39488 | -70.05132 | 7591 ft | 103 kts | 262° |
| 2026-04-23 15:28 | 18.39390 | -70.05886 | 7666 ft | 105 kts | 262° |
| 2026-04-23 15:28 | 18.39290 | -70.06650 | 7743 ft | 105 kts | 263° |
| 2026-04-23 15:29 | 18.39192 | -70.07400 | 7832 ft | 102 kts | 262° |
| 2026-04-23 15:29 | 18.39097 | -70.08121 | 7922 ft | 100 kts | 262° |
| 2026-04-23 15:29 | 18.39003 | -70.08839 | 8014 ft | 98 kts | 262° |
| 2026-04-23 15:29 | 18.38908 | -70.09566 | 8044 ft | 103 kts | 262° |
| 2026-04-23 15:30 | 18.38808 | -70.10333 | 8052 ft | 108 kts | 262° |
| 2026-04-23 15:30 | 18.38703 | -70.11127 | 8048 ft | 111 kts | 262° |
| 2026-04-23 15:30 | 18.38598 | -70.11926 | 8052 ft | 110 kts | 262° |
| 2026-04-23 15:30 | 18.38493 | -70.12724 | 8054 ft | 109 kts | 262° |
| 2026-04-23 15:31 | 18.38390 | -70.13513 | 8052 ft | 108 kts | 262° |
| 2026-04-23 15:31 | 18.38286 | -70.14297 | 8051 ft | 108 kts | 263° |
| 2026-04-23 15:31 | 18.38182 | -70.15087 | 8049 ft | 110 kts | 263° |
| 2026-04-23 15:31 | 18.38077 | -70.15886 | 8047 ft | 110 kts | 262° |
| 2026-04-23 15:32 | 18.37972 | -70.16691 | 8051 ft | 112 kts | 262° |
| 2026-04-23 15:32 | 18.37865 | -70.17504 | 8051 ft | 113 kts | 262° |
| 2026-04-23 15:32 | 18.37756 | -70.18328 | 8054 ft | 114 kts | 262° |
| 2026-04-23 15:32 | 18.37648 | -70.19152 | 8048 ft | 113 kts | 262° |
| 2026-04-23 15:33 | 18.37540 | -70.19971 | 8045 ft | 112 kts | 262° |
| 2026-04-23 15:33 | 18.37432 | -70.20785 | 8045 ft | 112 kts | 263° |
| 2026-04-23 15:33 | 18.37325 | -70.21598 | 8047 ft | 112 kts | 263° |
| 2026-04-23 15:33 | 18.37218 | -70.22410 | 8046 ft | 112 kts | 263° |
| 2026-04-23 15:34 | 18.37110 | -70.23224 | 8043 ft | 112 kts | 263° |
| 2026-04-23 15:34 | 18.37005 | -70.24020 | 8041 ft | 110 kts | 263° |
| 2026-04-23 15:34 | 18.36899 | -70.24823 | 8041 ft | 111 kts | 263° |
| 2026-04-23 15:34 | 18.36793 | -70.25624 | 8045 ft | 110 kts | 263° |
| 2026-04-23 15:35 | 18.36689 | -70.26421 | 8042 ft | 110 kts | 262° |
| 2026-04-23 15:35 | 18.36583 | -70.27217 | 8040 ft | 110 kts | 263° |
| 2026-04-23 15:35 | 18.36479 | -70.28010 | 8039 ft | 109 kts | 263° |
| 2026-04-23 15:35 | 18.36374 | -70.28800 | 8041 ft | 109 kts | 263° |
| 2026-04-23 15:36 | 18.36269 | -70.29593 | 8041 ft | 109 kts | 263° |
| 2026-04-23 15:36 | 18.36164 | -70.30382 | 8044 ft | 109 kts | 263° |
| 2026-04-23 15:36 | 18.36060 | -70.31175 | 8045 ft | 109 kts | 263° |
| 2026-04-23 15:36 | 18.35954 | -70.31971 | 8045 ft | 111 kts | 263° |
| 2026-04-23 15:37 | 18.35848 | -70.32777 | 8042 ft | 112 kts | 263° |
| 2026-04-23 15:37 | 18.35740 | -70.33583 | 8038 ft | 111 kts | 263° |
| 2026-04-23 15:37 | 18.35670 | -70.34113 | 8044 ft | 111 kts | 263° |
| 2026-04-23 15:37 | 18.35529 | -70.35177 | 8034 ft | 109 kts | 263° |
| 2026-04-23 15:38 | 18.35425 | -70.35968 | 8036 ft | 109 kts | 263° |
| 2026-04-23 15:38 | 18.35319 | -70.36766 | 8037 ft | 110 kts | 263° |
| 2026-04-23 15:38 | 18.35214 | -70.37558 | 8039 ft | 111 kts | 263° |
| 2026-04-23 15:38 | 18.35106 | -70.38368 | 8040 ft | 112 kts | 263° |
| 2026-04-23 15:39 | 18.34998 | -70.39181 | 8044 ft | 112 kts | 263° |
| 2026-04-23 15:39 | 18.34889 | -70.39993 | 8043 ft | 112 kts | 263° |
| 2026-04-23 15:39 | 18.34783 | -70.40802 | 8043 ft | 111 kts | 263° |
| 2026-04-23 15:39 | 18.34676 | -70.41604 | 8038 ft | 110 kts | 263° |
| 2026-04-23 15:40 | 18.34569 | -70.42405 | 8034 ft | 110 kts | 263° |
| 2026-04-23 15:40 | 18.34463 | -70.43203 | 8034 ft | 110 kts | 263° |
| 2026-04-23 15:40 | 18.34358 | -70.43994 | 8033 ft | 109 kts | 263° |
| 2026-04-23 15:40 | 18.34252 | -70.44785 | 8033 ft | 110 kts | 263° |
| 2026-04-23 15:41 | 18.34146 | -70.45580 | 8037 ft | 110 kts | 263° |
| 2026-04-23 15:41 | 18.34040 | -70.46380 | 8038 ft | 110 kts | 263° |
| 2026-04-23 15:41 | 18.33934 | -70.47180 | 8039 ft | 110 kts | 263° |
| 2026-04-23 15:41 | 18.33828 | -70.47972 | 8039 ft | 111 kts | 263° |
| 2026-04-23 15:42 | 18.33721 | -70.48773 | 8032 ft | 110 kts | 263° |
| 2026-04-23 15:42 | 18.33614 | -70.49576 | 8029 ft | 110 kts | 263° |
| 2026-04-23 15:42 | 18.33508 | -70.50375 | 8030 ft | 110 kts | 263° |
| 2026-04-23 15:42 | 18.33401 | -70.51171 | 8028 ft | 110 kts | 263° |
| 2026-04-23 15:43 | 18.33295 | -70.51966 | 8025 ft | 110 kts | 262° |
| 2026-04-23 15:43 | 18.33188 | -70.52765 | 8026 ft | 111 kts | 262° |
| 2026-04-23 15:43 | 18.33082 | -70.53567 | 8027 ft | 111 kts | 262° |
| 2026-04-23 15:43 | 18.32974 | -70.54371 | 8027 ft | 111 kts | 262° |
| 2026-04-23 15:44 | 18.32866 | -70.55176 | 8032 ft | 111 kts | 262° |
| 2026-04-23 15:44 | 18.32757 | -70.55987 | 8032 ft | 112 kts | 262° |
| 2026-04-23 15:44 | 18.32649 | -70.56800 | 8036 ft | 112 kts | 262° |
| 2026-04-23 15:44 | 18.32540 | -70.57617 | 8032 ft | 113 kts | 262° |
| 2026-04-23 15:45 | 18.32430 | -70.58434 | 8032 ft | 113 kts | 262° |
| 2026-04-23 15:45 | 18.32322 | -70.59249 | 8031 ft | 112 kts | 262° |
| 2026-04-23 15:45 | 18.32214 | -70.60048 | 8032 ft | 111 kts | 262° |
| 2026-04-23 15:45 | 18.32106 | -70.60851 | 8031 ft | 110 kts | 262° |
| 2026-04-23 15:46 | 18.32000 | -70.61646 | 8032 ft | 110 kts | 263° |
| 2026-04-23 15:46 | 18.31894 | -70.62440 | 8031 ft | 109 kts | 263° |
| 2026-04-23 15:46 | 18.31787 | -70.63232 | 8030 ft | 109 kts | 262° |
| 2026-04-23 15:46 | 18.31681 | -70.64027 | 8028 ft | 110 kts | 262° |
| 2026-04-23 15:47 | 18.31574 | -70.64818 | 8027 ft | 109 kts | 262° |
| 2026-04-23 15:47 | 18.31468 | -70.65608 | 8028 ft | 109 kts | 262° |
| 2026-04-23 15:47 | 18.31362 | -70.66398 | 8028 ft | 109 kts | 262° |
| 2026-04-23 15:47 | 18.31257 | -70.67185 | 8027 ft | 108 kts | 262° |
| 2026-04-23 15:48 | 18.31151 | -70.67971 | 8030 ft | 108 kts | 263° |
| 2026-04-23 15:48 | 18.31045 | -70.68758 | 8029 ft | 108 kts | 263° |
| 2026-04-23 15:48 | 18.30939 | -70.69543 | 8027 ft | 109 kts | 262° |
| 2026-04-23 15:48 | 18.30834 | -70.70327 | 8026 ft | 110 kts | 262° |
| 2026-04-23 15:49 | 18.30728 | -70.71120 | 8027 ft | 110 kts | 262° |
| 2026-04-23 15:49 | 18.30621 | -70.71917 | 8028 ft | 110 kts | 262° |
| 2026-04-23 15:49 | 18.30513 | -70.72716 | 8029 ft | 110 kts | 262° |
| 2026-04-23 15:49 | 18.30405 | -70.73519 | 8031 ft | 111 kts | 262° |
| 2026-04-23 15:50 | 18.30297 | -70.74319 | 8032 ft | 111 kts | 262° |
| 2026-04-23 15:50 | 18.30188 | -70.75125 | 8028 ft | 111 kts | 262° |
| 2026-04-23 15:50 | 18.30117 | -70.75656 | 8027 ft | 111 kts | 262° |
| 2026-04-23 15:50 | 18.29972 | -70.76733 | 8026 ft | 111 kts | 262° |
| 2026-04-23 15:51 | 18.29900 | -70.77263 | 8029 ft | 110 kts | 263° |
| 2026-04-23 15:51 | 18.29792 | -70.78060 | 8028 ft | 109 kts | 262° |
| 2026-04-23 15:51 | 18.29686 | -70.78848 | 8025 ft | 109 kts | 262° |
| 2026-04-23 15:51 | 18.29579 | -70.79638 | 8025 ft | 109 kts | 262° |
| 2026-04-23 15:52 | 18.29473 | -70.80429 | 8023 ft | 109 kts | 262° |
| 2026-04-23 15:52 | 18.29365 | -70.81224 | 8024 ft | 110 kts | 262° |
| 2026-04-23 15:52 | 18.29257 | -70.82024 | 8025 ft | 110 kts | 262° |
| 2026-04-23 15:52 | 18.29149 | -70.82826 | 8029 ft | 111 kts | 262° |
| 2026-04-23 15:53 | 18.29040 | -70.83631 | 8028 ft | 111 kts | 262° |
| 2026-04-23 15:53 | 18.28931 | -70.84439 | 8030 ft | 111 kts | 262° |
| 2026-04-23 15:53 | 18.28821 | -70.85245 | 8029 ft | 112 kts | 262° |
| 2026-04-23 15:53 | 18.28712 | -70.86055 | 8028 ft | 112 kts | 262° |
| 2026-04-23 15:54 | 18.28602 | -70.86864 | 8030 ft | 112 kts | 262° |
| 2026-04-23 15:54 | 18.28493 | -70.87672 | 8027 ft | 111 kts | 262° |
| 2026-04-23 15:54 | 18.28384 | -70.88475 | 8027 ft | 110 kts | 262° |
| 2026-04-23 15:54 | 18.28276 | -70.89274 | 8029 ft | 110 kts | 262° |
| 2026-04-23 15:55 | 18.28165 | -70.90073 | 8032 ft | 113 kts | 263° |
| 2026-04-23 15:55 | 18.28055 | -70.90899 | 8045 ft | 114 kts | 262° |
| 2026-04-23 15:55 | 18.27944 | -70.91717 | 8040 ft | 112 kts | 262° |
| 2026-04-23 15:55 | 18.27835 | -70.92524 | 8035 ft | 111 kts | 262° |
| 2026-04-23 15:56 | 18.27725 | -70.93328 | 8038 ft | 111 kts | 262° |
| 2026-04-23 15:56 | 18.27617 | -70.94131 | 8040 ft | 111 kts | 262° |
| 2026-04-23 15:56 | 18.27509 | -70.94926 | 8033 ft | 108 kts | 262° |
| 2026-04-23 15:56 | 18.27403 | -70.95704 | 8034 ft | 107 kts | 262° |
| 2026-04-23 15:57 | 18.27297 | -70.96487 | 8039 ft | 109 kts | 262° |
| 2026-04-23 15:57 | 18.27189 | -70.97275 | 8042 ft | 109 kts | 262° |
| 2026-04-23 15:57 | 18.27082 | -70.98066 | 8042 ft | 109 kts | 262° |
| 2026-04-23 15:57 | 18.26975 | -70.98853 | 8039 ft | 108 kts | 262° |
| 2026-04-23 15:58 | 18.26868 | -70.99637 | 8038 ft | 108 kts | 262° |
| 2026-04-23 15:58 | 18.26761 | -71.00422 | 8038 ft | 108 kts | 262° |
| 2026-04-23 15:58 | 18.26654 | -71.01211 | 8043 ft | 110 kts | 262° |
| 2026-04-23 15:58 | 18.26545 | -71.02013 | 8049 ft | 111 kts | 262° |
| 2026-04-23 15:59 | 18.26434 | -71.02822 | 8056 ft | 112 kts | 262° |
| 2026-04-23 15:59 | 18.26322 | -71.03647 | 8055 ft | 115 kts | 262° |
| 2026-04-23 15:59 | 18.26208 | -71.04484 | 8054 ft | 115 kts | 263° |
| 2026-04-23 15:59 | 18.26095 | -71.05315 | 8051 ft | 114 kts | 262° |
| 2026-04-23 16:00 | 18.25982 | -71.06137 | 8043 ft | 113 kts | 262° |
| 2026-04-23 16:00 | 18.25870 | -71.06951 | 8043 ft | 112 kts | 262° |
| 2026-04-23 16:00 | 18.25763 | -71.07747 | 8040 ft | 110 kts | 262° |
| 2026-04-23 16:00 | 18.25653 | -71.08549 | 8041 ft | 111 kts | 262° |
| 2026-04-23 16:01 | 18.25542 | -71.09363 | 8046 ft | 114 kts | 262° |
| 2026-04-23 16:01 | 18.25430 | -71.10186 | 8041 ft | 113 kts | 262° |
| 2026-04-23 16:01 | 18.25318 | -71.11002 | 8039 ft | 112 kts | 262° |
| 2026-04-23 16:01 | 18.25209 | -71.11807 | 8039 ft | 110 kts | 264° |
| 2026-04-23 16:02 | 18.25341 | -71.12593 | 8043 ft | 110 kts | 287° |
| 2026-04-23 16:02 | 18.25554 | -71.13362 | 8046 ft | 109 kts | 285° |
| 2026-04-23 16:02 | 18.25770 | -71.14133 | 8048 ft | 110 kts | 285° |
| 2026-04-23 16:02 | 18.25985 | -71.14900 | 8046 ft | 110 kts | 285° |
| 2026-04-23 16:03 | 18.26197 | -71.15660 | 8045 ft | 109 kts | 285° |
| 2026-04-23 16:03 | 18.26411 | -71.16427 | 8042 ft | 109 kts | 285° |
| 2026-04-23 16:03 | 18.26626 | -71.17196 | 8042 ft | 109 kts | 285° |
| 2026-04-23 16:03 | 18.26840 | -71.17962 | 8043 ft | 109 kts | 285° |
| 2026-04-23 16:04 | 18.27056 | -71.18733 | 8046 ft | 110 kts | 285° |
| 2026-04-23 16:04 | 18.27271 | -71.19505 | 8047 ft | 110 kts | 285° |
| 2026-04-23 16:04 | 18.27485 | -71.20275 | 8046 ft | 110 kts | 285° |
| 2026-04-23 16:04 | 18.27701 | -71.21047 | 8046 ft | 110 kts | 285° |
| 2026-04-23 16:05 | 18.27844 | -71.21558 | 8046 ft | 110 kts | 285° |
| 2026-04-23 16:05 | 18.28131 | -71.22588 | 8046 ft | 110 kts | 285° |
| 2026-04-23 16:05 | 18.28345 | -71.23355 | 8031 ft | 109 kts | 285° |
| 2026-04-23 16:05 | 18.28559 | -71.24122 | 8028 ft | 109 kts | 285° |
| 2026-04-23 16:06 | 18.28773 | -71.24889 | 8027 ft | 109 kts | 285° |
| 2026-04-23 16:06 | 18.28987 | -71.25656 | 8029 ft | 109 kts | 285° |
| 2026-04-23 16:06 | 18.29197 | -71.26411 | 8030 ft | 109 kts | 285° |
| 2026-04-23 16:06 | 18.29410 | -71.27174 | 8029 ft | 109 kts | 285° |
| 2026-04-23 16:07 | 18.29623 | -71.27941 | 8027 ft | 110 kts | 285° |
| 2026-04-23 16:07 | 18.29839 | -71.28713 | 8027 ft | 110 kts | 285° |
| 2026-04-23 16:07 | 18.30052 | -71.29481 | 8031 ft | 109 kts | 285° |
| 2026-04-23 16:07 | 18.30265 | -71.30246 | 8033 ft | 109 kts | 285° |
| 2026-04-23 16:08 | 18.30478 | -71.31009 | 8029 ft | 109 kts | 285° |
| 2026-04-23 16:08 | 18.30691 | -71.31776 | 8030 ft | 109 kts | 285° |
| 2026-04-23 16:08 | 18.30905 | -71.32544 | 8029 ft | 110 kts | 285° |
| 2026-04-23 16:08 | 18.31119 | -71.33313 | 8032 ft | 109 kts | 285° |
| 2026-04-23 16:09 | 18.31331 | -71.34075 | 8029 ft | 108 kts | 285° |
| 2026-04-23 16:09 | 18.31544 | -71.34839 | 8026 ft | 109 kts | 285° |
| 2026-04-23 16:09 | 18.31757 | -71.35606 | 8034 ft | 109 kts | 285° |
| 2026-04-23 16:09 | 18.31971 | -71.36375 | 8028 ft | 110 kts | 285° |
| 2026-04-23 16:10 | 18.32185 | -71.37144 | 8028 ft | 110 kts | 285° |
| 2026-04-23 16:10 | 18.32400 | -71.37917 | 8027 ft | 110 kts | 285° |
| 2026-04-23 16:10 | 18.32614 | -71.38689 | 8028 ft | 110 kts | 285° |
| 2026-04-23 16:10 | 18.32829 | -71.39461 | 8029 ft | 110 kts | 285° |
| 2026-04-23 16:11 | 18.33041 | -71.40224 | 8031 ft | 110 kts | 285° |
| 2026-04-23 16:11 | 18.33255 | -71.40995 | 8035 ft | 110 kts | 285° |
| 2026-04-23 16:11 | 18.33473 | -71.41781 | 8034 ft | 111 kts | 285° |
| 2026-04-23 16:11 | 18.33688 | -71.42552 | 8032 ft | 111 kts | 285° |
| 2026-04-23 16:12 | 18.33904 | -71.43333 | 8030 ft | 112 kts | 285° |
| 2026-04-23 16:12 | 18.34123 | -71.44119 | 8031 ft | 111 kts | 285° |
| 2026-04-23 16:12 | 18.34340 | -71.44901 | 8031 ft | 112 kts | 285° |
| 2026-04-23 16:12 | 18.34557 | -71.45685 | 8032 ft | 111 kts | 285° |
| 2026-04-23 16:13 | 18.34774 | -71.46466 | 8032 ft | 111 kts | 285° |
| 2026-04-23 16:13 | 18.35207 | -71.48025 | 8030 ft | 111 kts | 285° |
| 2026-04-23 16:13 | 18.35422 | -71.48805 | 8028 ft | 110 kts | 285° |
| 2026-04-23 16:14 | 18.35637 | -71.49575 | 8026 ft | 109 kts | 285° |
| 2026-04-23 16:14 | 18.35849 | -71.50342 | 8028 ft | 109 kts | 285° |
| 2026-04-23 16:14 | 18.36062 | -71.51107 | 8022 ft | 109 kts | 286° |
| 2026-04-23 16:14 | 18.36273 | -71.51869 | 8022 ft | 108 kts | 285° |
| 2026-04-23 16:15 | 18.36483 | -71.52629 | 8022 ft | 108 kts | 285° |
| 2026-04-23 16:15 | 18.36694 | -71.53392 | 8030 ft | 109 kts | 285° |
| 2026-04-23 16:15 | 18.36906 | -71.54154 | 8021 ft | 108 kts | 285° |
| 2026-04-23 16:15 | 18.37115 | -71.54913 | 8022 ft | 108 kts | 285° |
| 2026-04-23 16:16 | 18.37327 | -71.55674 | 8023 ft | 108 kts | 285° |
| 2026-04-23 16:16 | 18.37536 | -71.56431 | 8028 ft | 108 kts | 283° |
| 2026-04-23 16:16 | 18.37747 | -71.57188 | 8018 ft | 108 kts | 284° |
| 2026-04-23 16:16 | 18.37955 | -71.57946 | 8027 ft | 108 kts | 284° |
| 2026-04-23 16:17 | 18.38165 | -71.58703 | 8030 ft | 109 kts | 285° |
| 2026-04-23 16:17 | 18.38379 | -71.59475 | 8032 ft | 111 kts | 284° |
| 2026-04-23 16:17 | 18.38593 | -71.60256 | 8037 ft | 111 kts | 283° |
| 2026-04-23 16:17 | 18.38811 | -71.61040 | 8031 ft | 111 kts | 284° |
| 2026-04-23 16:18 | 18.39029 | -71.61826 | 8036 ft | 113 kts | 284° |
| 2026-04-23 16:18 | 18.39249 | -71.62618 | 8029 ft | 112 kts | 284° |
| 2026-04-23 16:18 | 18.39467 | -71.63405 | 8027 ft | 112 kts | 285° |
| 2026-04-23 16:18 | 18.39685 | -71.64193 | 8032 ft | 112 kts | 284° |
| 2026-04-23 16:19 | 18.39900 | -71.64975 | 8026 ft | 112 kts | 283° |
| 2026-04-23 16:19 | 18.40115 | -71.65757 | 8027 ft | 111 kts | 283° |
| 2026-04-23 16:19 | 18.40330 | -71.66532 | 8033 ft | 110 kts | 283° |
| 2026-04-23 16:19 | 18.40544 | -71.67308 | 8032 ft | 110 kts | 283° |
| 2026-04-23 16:20 | 18.40758 | -71.68082 | 8034 ft | 110 kts | 283° |
| 2026-04-23 16:20 | 18.40970 | -71.68849 | 8032 ft | 109 kts | 283° |
| 2026-04-23 16:20 | 18.41183 | -71.69621 | 8027 ft | 110 kts | 284° |
| 2026-04-23 16:20 | 18.41396 | -71.70391 | 8025 ft | 109 kts | 283° |
| 2026-04-23 16:21 | 18.41607 | -71.71157 | 8024 ft | 110 kts | 285° |
| 2026-04-23 16:21 | 18.41820 | -71.71929 | 8030 ft | 110 kts | 284° |
| 2026-04-23 16:21 | 18.42034 | -71.72701 | 8030 ft | 109 kts | 283° |
| 2026-04-23 16:21 | 18.42242 | -71.73458 | 8033 ft | 109 kts | 284° |
| 2026-04-23 16:22 | 18.42456 | -71.74231 | 8032 ft | 110 kts | 283° |
| 2026-04-23 16:22 | 18.42668 | -71.75005 | 8028 ft | 111 kts | 284° |
| 2026-04-23 16:22 | 18.42884 | -71.75789 | 8028 ft | 112 kts | 285° |
| 2026-04-23 16:22 | 18.43101 | -71.76575 | 8031 ft | 112 kts | 284° |
| 2026-04-23 16:23 | 18.43319 | -71.77366 | 8033 ft | 113 kts | 284° |
| 2026-04-23 16:23 | 18.43537 | -71.78158 | 8031 ft | 113 kts | 285° |
| 2026-04-23 16:23 | 18.43754 | -71.78948 | 8034 ft | 112 kts | 284° |
| 2026-04-23 16:23 | 18.43972 | -71.79734 | 8034 ft | 112 kts | 285° |
| 2026-04-23 16:24 | 18.44188 | -71.80521 | 8030 ft | 112 kts | 284° |
| 2026-04-23 16:24 | 18.44403 | -71.81300 | 8030 ft | 111 kts | 283° |
| 2026-04-23 16:24 | 18.44617 | -71.82082 | 8031 ft | 111 kts | 283° |
| 2026-04-23 16:24 | 18.44833 | -71.82867 | 8027 ft | 112 kts | 284° |
| 2026-04-23 16:25 | 18.45048 | -71.83645 | 8027 ft | 110 kts | 285° |
| 2026-04-23 16:25 | 18.45262 | -71.84422 | 8017 ft | 109 kts | 283° |
| 2026-04-23 16:25 | 18.45471 | -71.85182 | 8022 ft | 108 kts | 283° |
| 2026-04-23 16:25 | 18.45680 | -71.85944 | 8024 ft | 106 kts | 284° |
| 2026-04-23 16:26 | 18.45886 | -71.86687 | 8026 ft | 106 kts | 284° |
| 2026-04-23 16:26 | 18.46092 | -71.87436 | 8026 ft | 108 kts | 285° |
| 2026-04-23 16:26 | 18.46300 | -71.88197 | 8027 ft | 108 kts | 283° |
| 2026-04-23 16:26 | 18.46508 | -71.88942 | 8028 ft | 105 kts | 283° |
| 2026-04-23 16:27 | 18.46709 | -71.89685 | 8020 ft | 106 kts | 284° |
| 2026-04-23 16:27 | 18.46913 | -71.90421 | 8021 ft | 106 kts | 284° |
| 2026-04-23 16:27 | 18.47122 | -71.91182 | 8026 ft | 108 kts | 284° |
| 2026-04-23 16:27 | 18.47331 | -71.91942 | 8030 ft | 108 kts | 284° |
| 2026-04-23 16:28 | 18.47540 | -71.92706 | 8037 ft | 109 kts | 283° |
| 2026-04-23 16:28 | 18.47751 | -71.93476 | 8032 ft | 110 kts | 285° |
| 2026-04-23 16:28 | 18.47963 | -71.94248 | 8029 ft | 112 kts | 284° |
| 2026-04-23 16:28 | 18.48181 | -71.95042 | 8027 ft | 112 kts | 284° |
| 2026-04-23 16:29 | 18.48397 | -71.95830 | 8026 ft | 112 kts | 285° |
| 2026-04-23 16:29 | 18.48612 | -71.96615 | 8026 ft | 113 kts | 285° |
| 2026-04-23 16:29 | 18.48830 | -71.97409 | 8028 ft | 113 kts | 285° |
| 2026-04-23 16:29 | 18.49051 | -71.98213 | 8025 ft | 114 kts | 285° |
| 2026-04-23 16:30 | 18.49268 | -71.99003 | 8025 ft | 112 kts | 284° |
| 2026-04-23 16:30 | 18.49481 | -71.99783 | 8030 ft | 112 kts | 284° |
| 2026-04-23 16:30 | 18.49698 | -72.00574 | 8030 ft | 112 kts | 283° |
| 2026-04-23 16:30 | 18.49916 | -72.01367 | 8025 ft | 112 kts | 284° |
| 2026-04-23 16:31 | 18.50129 | -72.02143 | 8026 ft | 111 kts | 284° |
| 2026-04-23 16:31 | 18.50344 | -72.02928 | 8024 ft | 112 kts | 285° |
| 2026-04-23 16:31 | 18.50560 | -72.03714 | 8022 ft | 112 kts | 284° |
| 2026-04-23 16:31 | 18.50774 | -72.04497 | 8021 ft | 111 kts | 284° |
| 2026-04-23 16:32 | 18.50986 | -72.05269 | 8019 ft | 108 kts | 284° |
| 2026-04-23 16:32 | 18.51195 | -72.06035 | 8022 ft | 108 kts | 284° |
| 2026-04-23 16:32 | 18.51403 | -72.06793 | 8021 ft | 108 kts | 284° |
| 2026-04-23 16:32 | 18.51611 | -72.07553 | 8023 ft | 108 kts | 284° |
| 2026-04-23 16:33 | 18.51822 | -72.08326 | 8016 ft | 109 kts | 284° |
| 2026-04-23 16:33 | 18.52033 | -72.09095 | 8015 ft | 109 kts | 283° |
| 2026-04-23 16:33 | 18.52242 | -72.09861 | 8015 ft | 109 kts | 284° |
| 2026-04-23 16:33 | 18.52452 | -72.10626 | 8012 ft | 110 kts | 285° |
| 2026-04-23 16:34 | 18.52666 | -72.11404 | 8014 ft | 110 kts | 285° |
| 2026-04-23 16:34 | 18.52877 | -72.12181 | 8015 ft | 110 kts | 284° |
| 2026-04-23 16:34 | 18.53094 | -72.12973 | 7919 ft | 116 kts | 284° |
| 2026-04-23 16:34 | 18.53313 | -72.13769 | 7745 ft | 111 kts | 285° |
| 2026-04-23 16:35 | 18.53527 | -72.14552 | 7571 ft | 111 kts | 285° |
| 2026-04-23 16:35 | 18.53741 | -72.15335 | 7399 ft | 110 kts | 285° |
| 2026-04-23 16:35 | 18.53947 | -72.16093 | 7230 ft | 108 kts | 284° |
| 2026-04-23 16:35 | 18.54154 | -72.16848 | 7063 ft | 106 kts | 285° |
| 2026-04-23 16:36 | 18.54359 | -72.17600 | 6894 ft | 107 kts | 285° |
| 2026-04-23 16:36 | 18.54564 | -72.18352 | 6735 ft | 107 kts | 285° |
| 2026-04-23 16:36 | 18.54769 | -72.19104 | 6565 ft | 107 kts | 285° |
| 2026-04-23 16:36 | 18.54975 | -72.19856 | 6402 ft | 107 kts | 285° |
| 2026-04-23 16:37 | 18.55268 | -72.20567 | 6223 ft | 108 kts | 315° |
| 2026-04-23 16:37 | 18.55614 | -72.20939 | 6106 ft | 107 kts | 299° |
| 2026-04-23 16:37 | 18.55855 | -72.21939 | 5888 ft | 107 kts | 284° |
| 2026-04-23 16:37 | 18.56022 | -72.22704 | 5720 ft | 107 kts | 283° |
| 2026-04-23 16:38 | 18.56187 | -72.23474 | 5552 ft | 108 kts | 282° |
| 2026-04-23 16:38 | 18.56351 | -72.24248 | 5383 ft | 108 kts | 282° |
| 2026-04-23 16:38 | 18.56463 | -72.24771 | 5262 ft | 108 kts | 282° |
| 2026-04-23 16:38 | 18.56681 | -72.25801 | 5049 ft | 109 kts | 282° |
| 2026-04-23 16:39 | 18.56846 | -72.26579 | 4878 ft | 109 kts | 282° |
| 2026-04-23 16:39 | 18.56956 | -72.27106 | 4762 ft | 109 kts | 283° |
| 2026-04-23 16:39 | 18.57121 | -72.27885 | 4591 ft | 109 kts | 282° |
| 2026-04-23 16:39 | 18.57284 | -72.28654 | 4425 ft | 109 kts | 282° |
| 2026-04-23 16:40 | 18.57448 | -72.29432 | 4245 ft | 109 kts | 282° |
| 2026-04-23 16:40 | 18.57613 | -72.30210 | 4079 ft | 109 kts | 282° |
| 2026-04-23 16:40 | 18.57926 | -72.30915 | 3984 ft | 102 kts | 302° |
| 2026-04-23 16:40 | 18.58263 | -72.31529 | 3968 ft | 92 kts | 300° |
| 2026-04-23 16:41 | 18.58576 | -72.32096 | 3977 ft | 91 kts | 300° |
| 2026-04-23 16:41 | 18.58903 | -72.32687 | 3990 ft | 95 kts | 300° |
| 2026-04-23 16:41 | 18.59243 | -72.33306 | 3992 ft | 99 kts | 299° |
| 2026-04-23 16:41 | 18.59596 | -72.33947 | 3985 ft | 103 kts | 300° |
| 2026-04-23 16:42 | 18.59956 | -72.34602 | 3987 ft | 104 kts | 299° |
| 2026-04-23 16:42 | 18.60320 | -72.35263 | 3989 ft | 105 kts | 300° |
| 2026-04-23 16:42 | 18.60687 | -72.35929 | 3990 ft | 105 kts | 300° |
| 2026-04-23 16:42 | 18.61054 | -72.36596 | 3991 ft | 106 kts | 300° |
| 2026-04-23 16:43 | 18.61424 | -72.37270 | 3988 ft | 106 kts | 300° |
| 2026-04-23 16:43 | 18.61794 | -72.37943 | 3988 ft | 106 kts | 300° |
| 2026-04-23 16:43 | 18.62164 | -72.38616 | 3987 ft | 106 kts | 300° |
| 2026-04-23 16:43 | 18.62535 | -72.39290 | 3987 ft | 106 kts | 300° |
| 2026-04-23 16:44 | 18.62906 | -72.39964 | 3987 ft | 106 kts | 300° |
| 2026-04-23 16:44 | 18.63277 | -72.40637 | 3986 ft | 106 kts | 300° |
| 2026-04-23 16:44 | 18.63648 | -72.41313 | 3986 ft | 106 kts | 300° |
| 2026-04-23 16:44 | 18.64018 | -72.41988 | 3985 ft | 106 kts | 300° |
| 2026-04-23 16:45 | 18.64389 | -72.42662 | 3985 ft | 106 kts | 300° |
| 2026-04-23 16:45 | 18.64759 | -72.43336 | 3985 ft | 106 kts | 300° |
| 2026-04-23 16:45 | 18.65129 | -72.44010 | 3984 ft | 106 kts | 300° |
| 2026-04-23 16:45 | 18.65500 | -72.44684 | 3984 ft | 106 kts | 300° |
| 2026-04-23 16:46 | 18.65871 | -72.45358 | 3984 ft | 106 kts | 300° |
| 2026-04-23 16:46 | 18.66236 | -72.46024 | 3983 ft | 106 kts | 300° |
| 2026-04-23 16:46 | 18.66606 | -72.46698 | 3983 ft | 106 kts | 300° |
| 2026-04-23 16:46 | 18.66976 | -72.47372 | 3983 ft | 106 kts | 300° |
| 2026-04-23 16:47 | 18.67346 | -72.48046 | 3982 ft | 106 kts | 300° |
| 2026-04-23 16:47 | 18.67715 | -72.48719 | 3982 ft | 106 kts | 300° |
| 2026-04-23 16:47 | 18.68086 | -72.49394 | 3982 ft | 106 kts | 300° |
| 2026-04-23 16:47 | 18.68457 | -72.50068 | 3982 ft | 106 kts | 300° |
| 2026-04-23 16:48 | 18.68827 | -72.50742 | 3982 ft | 106 kts | 300° |
| 2026-04-23 16:48 | 18.69197 | -72.51417 | 3981 ft | 106 kts | 300° |
| 2026-04-23 16:48 | 18.69567 | -72.52092 | 3981 ft | 106 kts | 300° |
| 2026-04-23 16:48 | 18.69936 | -72.52766 | 3981 ft | 106 kts | 300° |
| 2026-04-23 16:49 | 18.70307 | -72.53442 | 3982 ft | 106 kts | 300° |
| 2026-04-23 16:49 | 18.70677 | -72.54116 | 3982 ft | 106 kts | 300° |
| 2026-04-23 16:49 | 18.71047 | -72.54790 | 3981 ft | 106 kts | 300° |
| 2026-04-23 16:49 | 18.71406 | -72.55471 | 3979 ft | 106 kts | 292° |
| 2026-04-23 16:50 | 18.71386 | -72.56235 | 3975 ft | 106 kts | 249° |
| 2026-04-23 16:50 | 18.70910 | -72.56797 | 3968 ft | 107 kts | 209° |
| 2026-04-23 16:50 | 18.70230 | -72.57162 | 3903 ft | 112 kts | 207° |
| 2026-04-23 16:50 | 18.69520 | -72.57519 | 3836 ft | 114 kts | 205° |
| 2026-04-23 16:51 | 18.68789 | -72.57862 | 3767 ft | 116 kts | 203° |
| 2026-04-23 16:51 | 18.68041 | -72.58186 | 3695 ft | 117 kts | 201° |
| 2026-04-23 16:51 | 18.67281 | -72.58489 | 3624 ft | 117 kts | 200° |
| 2026-04-23 16:51 | 18.66511 | -72.58769 | 3552 ft | 117 kts | 198° |
| 2026-04-23 16:52 | 18.65731 | -72.59027 | 3478 ft | 117 kts | 197° |
| 2026-04-23 16:52 | 18.64945 | -72.59261 | 3406 ft | 117 kts | 195° |
| 2026-04-23 16:52 | 18.64152 | -72.59470 | 3335 ft | 117 kts | 193° |
| 2026-04-23 16:52 | 18.63354 | -72.59655 | 3265 ft | 117 kts | 192° |
| 2026-04-23 16:53 | 18.62551 | -72.59815 | 3258 ft | 117 kts | 190° |
| 2026-04-23 16:53 | 18.61750 | -72.59951 | 3191 ft | 116 kts | 188° |
| 2026-04-23 16:53 | 18.60948 | -72.60062 | 3125 ft | 116 kts | 186° |
| 2026-04-23 16:53 | 18.60141 | -72.60149 | 3056 ft | 116 kts | 184° |
| 2026-04-23 16:54 | 18.59334 | -72.60211 | 2980 ft | 117 kts | 182° |
| 2026-04-23 16:54 | 18.58545 | -72.60248 | 2952 ft | 110 kts | 181° |
| 2026-04-23 16:54 | 18.57806 | -72.60260 | 2963 ft | 105 kts | 180° |
| 2026-04-23 16:54 | 18.57086 | -72.60147 | 2994 ft | 108 kts | 152° |
| 2026-04-23 16:55 | 18.56581 | -72.59590 | 2981 ft | 106 kts | 116° |
| 2026-04-23 16:55 | 18.56497 | -72.58834 | 2980 ft | 105 kts | 88° |
| 2026-04-23 16:55 | 18.56549 | -72.58074 | 2979 ft | 104 kts | 85° |
| 2026-04-23 16:55 | 18.56601 | -72.57311 | 2979 ft | 104 kts | 86° |
| 2026-04-23 16:56 | 18.56649 | -72.56550 | 2980 ft | 104 kts | 87° |
| 2026-04-23 16:56 | 18.56687 | -72.55788 | 2980 ft | 104 kts | 87° |
| 2026-04-23 16:56 | 18.56726 | -72.55028 | 2980 ft | 104 kts | 87° |
| 2026-04-23 16:56 | 18.56764 | -72.54268 | 2980 ft | 104 kts | 87° |
| 2026-04-23 16:57 | 18.56802 | -72.53507 | 2981 ft | 104 kts | 87° |
| 2026-04-23 16:57 | 18.56840 | -72.52743 | 2982 ft | 104 kts | 89° |
| 2026-04-23 16:57 | 18.56878 | -72.51981 | 2982 ft | 104 kts | 89° |
| 2026-04-23 16:57 | 18.56917 | -72.51220 | 2979 ft | 103 kts | 89° |
| 2026-04-23 16:58 | 18.56954 | -72.50466 | 2981 ft | 103 kts | 89° |
| 2026-04-23 16:58 | 18.56991 | -72.49712 | 2978 ft | 103 kts | 89° |
| 2026-04-23 16:58 | 18.57029 | -72.48962 | 2978 ft | 103 kts | 89° |
| 2026-04-23 16:58 | 18.57063 | -72.48212 | 2979 ft | 103 kts | 88° |
| 2026-04-23 16:59 | 18.57100 | -72.47463 | 2982 ft | 102 kts | 89° |
| 2026-04-23 16:59 | 18.57138 | -72.46712 | 2980 ft | 103 kts | 89° |
| 2026-04-23 16:59 | 18.57175 | -72.45953 | 2911 ft | 107 kts | 89° |
| 2026-04-23 16:59 | 18.57213 | -72.45169 | 2774 ft | 107 kts | 89° |
| 2026-04-23 17:00 | 18.57252 | -72.44392 | 2622 ft | 105 kts | 88° |
| 2026-04-23 17:00 | 18.57290 | -72.43619 | 2469 ft | 106 kts | 88° |
| 2026-04-23 17:00 | 18.57327 | -72.42846 | 2317 ft | 106 kts | 88° |
| 2026-04-23 17:00 | 18.57366 | -72.42068 | 2164 ft | 107 kts | 89° |
| 2026-04-23 17:01 | 18.57404 | -72.41285 | 2017 ft | 107 kts | 88° |
| 2026-04-23 17:01 | 18.57445 | -72.40502 | 1866 ft | 107 kts | 88° |
| 2026-04-23 17:01 | 18.57484 | -72.39714 | 1722 ft | 108 kts | 88° |
| 2026-04-23 17:01 | 18.57524 | -72.38917 | 1576 ft | 109 kts | 88° |
| 2026-04-23 17:02 | 18.57550 | -72.38390 | 1480 ft | 109 kts | 87° |
| 2026-04-23 17:02 | 18.57603 | -72.37319 | 1286 ft | 110 kts | 88° |
| 2026-04-23 17:02 | 18.57643 | -72.36517 | 1139 ft | 110 kts | 87° |
| 2026-04-23 17:02 | 18.57682 | -72.35745 | 1007 ft | 102 kts | 88° |
| 2026-04-23 17:03 | 18.57717 | -72.35019 | 890 ft | 96 kts | 88° |
| 2026-04-23 17:03 | 18.57752 | -72.34328 | 778 ft | 92 kts | 88° |
| 2026-04-23 17:03 | 18.57785 | -72.33680 | 681 ft | 85 kts | 89° |
| 2026-04-23 17:03 | 18.57815 | -72.33065 | 566 ft | 84 kts | 88° |
| 2026-04-23 17:04 | 18.57845 | -72.32474 | 458 ft | 76 kts | 89° |
| 2026-04-23 17:04 | 18.57873 | -72.31939 | 363 ft | 71 kts | 87° |
| 2026-04-23 17:04 | 18.57903 | -72.31395 | 298 ft | 78 kts | 87° |
| 2026-04-23 17:04 | 18.57926 | -72.30866 | 169 ft | 67 kts | 87° |
| 2026-04-23 17:05 | 18.57949 | -72.30391 | 81 ft | 61 kts | 86° |
| 2026-04-23 17:05 | 18.57965 | -72.30043 | 83 ft | 36 kts | 87° |
| 2026-04-23 17:05 | 18.57981 | -72.29813 | 86 ft | 28 kts | 85° |
| 2026-04-23 17:05 | 18.57986 | -72.29608 | 87 ft | 32 kts | 88° |
| 2026-04-23 17:06 | 18.57929 | -72.29472 | 89 ft | 11 kts | 168° |
| 2026-04-23 17:06 | 18.57859 | -72.29464 | 93 ft | 9 kts | 175° |
| 2026-04-23 17:06 | 18.57786 | -72.29459 | 90 ft | 16 kts | 178° |
| 2026-04-23 17:06 | 18.57677 | -72.29475 | 90 ft | 15 kts | 206° |
| 2026-04-23 17:07 | 18.57649 | -72.29411 | 91 ft | 9 kts | 117° |
| 2026-04-23 17:07 | 18.57645 | -72.29403 | 91 ft | 0 kts | 123° |